sensor_id;sensor_type;location;lat;lon;timestamp;temperature;humidity
35258;DHT22;21385;50.878;8.050;2023-04-24T00:00:04;11.90;99.90
35258;DHT22;21385;50.878;8.050;2023-04-24T00:02:37;11.90;99.90
35258;DHT22;21385;50.878;8.050;2023-04-24T00:05:07;11.90;99.90
35258;DHT22;21385;50.878;8.050;2023-04-24T00:07:33;11.90;99.90
35258;DHT22;21385;50.878;8.050;2023-04-24T00:09:59;11.90;99.90
35258;DHT22;21385;50.878;8.050;2023-04-24T00:12:26;11.90;99.90
35258;DHT22;21385;50.878;8.050;2023-04-24T00:14:52;11.90;99.90
35258;DHT22;21385;50.878;8.050;2023-04-24T00:17:17;12.00;99.90
35258;DHT22;21385;50.878;8.050;2023-04-24T00:19:47;12.00;99.90
35258;DHT22;21385;50.878;8.050;2023-04-24T00:22:13;12.00;99.90
35258;DHT22;21385;50.878;8.050;2023-04-24T00:24:40;12.00;99.90
35258;DHT22;21385;50.878;8.050;2023-04-24T00:27:05;12.10;99.90
35258;DHT22;21385;50.878;8.050;2023-04-24T00:29:31;12.10;99.90
35258;DHT22;21385;50.878;8.050;2023-04-24T00:31:56;12.10;99.90
35258;DHT22;21385;50.878;8.050;2023-04-24T00:34:22;12.00;99.90
35258;DHT22;21385;50.878;8.050;2023-04-24T00:36:47;12.00;99.90
35258;DHT22;21385;50.878;8.050;2023-04-24T00:39:18;12.10;99.90
35258;DHT22;21385;50.878;8.050;2023-04-24T00:41:43;12.00;99.90
35258;DHT22;21385;50.878;8.050;2023-04-24T00:44:10;12.00;99.90
35258;DHT22;21385;50.878;8.050;2023-04-24T00:46:36;12.00;99.90
35258;DHT22;21385;50.878;8.050;2023-04-24T00:49:02;12.00;99.90
35258;DHT22;21385;50.878;8.050;2023-04-24T00:51:28;12.00;99.90
35258;DHT22;21385;50.878;8.050;2023-04-24T00:53:53;12.10;99.90
35258;DHT22;21385;50.878;8.050;2023-04-24T00:56:19;12.10;99.90
35258;DHT22;21385;50.878;8.050;2023-04-24T00:58:45;12.10;99.90
35258;DHT22;21385;50.878;8.050;2023-04-24T01:01:11;11.90;99.90
35258;DHT22;21385;50.878;8.050;2023-04-24T01:03:37;11.90;99.90
35258;DHT22;21385;50.878;8.050;2023-04-24T01:06:04;11.80;99.90
35258;DHT22;21385;50.878;8.050;2023-04-24T01:08:30;11.70;99.90
35258;DHT22;21385;50.878;8.050;2023-04-24T01:10:57;11.70;99.90
35258;DHT22;21385;50.878;8.050;2023-04-24T01:13:23;11.60;99.90
35258;DHT22;21385;50.878;8.050;2023-04-24T01:15:49;11.60;99.90
35258;DHT22;21385;50.878;8.050;2023-04-24T01:18:15;11.50;99.90
35258;DHT22;21385;50.878;8.050;2023-04-24T01:20:43;11.50;99.90
35258;DHT22;21385;50.878;8.050;2023-04-24T01:23:10;11.50;99.90
35258;DHT22;21385;50.878;8.050;2023-04-24T01:25:36;11.50;99.90
35258;DHT22;21385;50.878;8.050;2023-04-24T01:28:02;11.50;99.90
35258;DHT22;21385;50.878;8.050;2023-04-24T01:30:28;11.30;99.90
35258;DHT22;21385;50.878;8.050;2023-04-24T01:32:55;11.20;99.90
35258;DHT22;21385;50.878;8.050;2023-04-24T01:35:21;11.00;99.90
35258;DHT22;21385;50.878;8.050;2023-04-24T01:37:46;10.90;99.90
35258;DHT22;21385;50.878;8.050;2023-04-24T01:40:12;10.90;99.90
35258;DHT22;21385;50.878;8.050;2023-04-24T01:42:38;10.90;99.90
35258;DHT22;21385;50.878;8.050;2023-04-24T01:45:04;10.80;99.90
35258;DHT22;21385;50.878;8.050;2023-04-24T01:47:32;10.80;99.90
35258;DHT22;21385;50.878;8.050;2023-04-24T01:49:58;10.80;99.90
35258;DHT22;21385;50.878;8.050;2023-04-24T01:52:24;10.90;99.90
35258;DHT22;21385;50.878;8.050;2023-04-24T01:54:50;10.90;99.90
35258;DHT22;21385;50.878;8.050;2023-04-24T01:57:16;11.00;99.90
35258;DHT22;21385;50.878;8.050;2023-04-24T01:59:41;11.00;99.90
35258;DHT22;21385;50.878;8.050;2023-04-24T02:02:07;11.00;99.90
35258;DHT22;21385;50.878;8.050;2023-04-24T02:04:33;11.10;99.90
35258;DHT22;21385;50.878;8.050;2023-04-24T02:06:58;11.20;99.90
35258;DHT22;21385;50.878;8.050;2023-04-24T02:09:24;11.20;99.90
35258;DHT22;21385;50.878;8.050;2023-04-24T02:11:50;11.30;99.90
35258;DHT22;21385;50.878;8.050;2023-04-24T02:14:16;11.30;99.90
35258;DHT22;21385;50.878;8.050;2023-04-24T02:16:41;11.40;99.90
35258;DHT22;21385;50.878;8.050;2023-04-24T02:19:07;11.40;99.90
35258;DHT22;21385;50.878;8.050;2023-04-24T02:21:33;11.50;99.90
35258;DHT22;21385;50.878;8.050;2023-04-24T02:23:59;11.40;99.90
35258;DHT22;21385;50.878;8.050;2023-04-24T02:26:24;11.30;99.90
35258;DHT22;21385;50.878;8.050;2023-04-24T02:28:50;11.20;99.90
35258;DHT22;21385;50.878;8.050;2023-04-24T02:31:16;11.20;99.90
35258;DHT22;21385;50.878;8.050;2023-04-24T02:33:41;11.00;99.90
35258;DHT22;21385;50.878;8.050;2023-04-24T02:36:07;11.00;99.90
35258;DHT22;21385;50.878;8.050;2023-04-24T02:38:32;10.90;99.90
35258;DHT22;21385;50.878;8.050;2023-04-24T02:40:58;10.90;99.90
35258;DHT22;21385;50.878;8.050;2023-04-24T02:43:24;10.80;99.90
35258;DHT22;21385;50.878;8.050;2023-04-24T02:45:49;10.80;99.90
35258;DHT22;21385;50.878;8.050;2023-04-24T02:48:15;10.70;99.90
35258;DHT22;21385;50.878;8.050;2023-04-24T02:50:42;10.80;99.90
35258;DHT22;21385;50.878;8.050;2023-04-24T02:53:07;10.70;99.90
35258;DHT22;21385;50.878;8.050;2023-04-24T02:55:33;10.60;99.90
35258;DHT22;21385;50.878;8.050;2023-04-24T02:57:58;10.70;99.90
35258;DHT22;21385;50.878;8.050;2023-04-24T03:00:24;10.60;99.90
35258;DHT22;21385;50.878;8.050;2023-04-24T03:02:50;10.60;99.90
35258;DHT22;21385;50.878;8.050;2023-04-24T03:05:16;10.70;99.90
35258;DHT22;21385;50.878;8.050;2023-04-24T03:07:41;10.70;99.90
35258;DHT22;21385;50.878;8.050;2023-04-24T03:10:07;10.50;99.90
35258;DHT22;21385;50.878;8.050;2023-04-24T03:12:33;10.60;99.90
35258;DHT22;21385;50.878;8.050;2023-04-24T03:14:59;10.50;99.90
35258;DHT22;21385;50.878;8.050;2023-04-24T03:17:24;10.30;99.90
35258;DHT22;21385;50.878;8.050;2023-04-24T03:19:50;10.30;99.90
35258;DHT22;21385;50.878;8.050;2023-04-24T03:22:16;10.30;99.90
35258;DHT22;21385;50.878;8.050;2023-04-24T03:24:41;10.20;99.90
35258;DHT22;21385;50.878;8.050;2023-04-24T03:27:07;10.20;99.90
35258;DHT22;21385;50.878;8.050;2023-04-24T03:29:33;10.30;99.90
35258;DHT22;21385;50.878;8.050;2023-04-24T03:31:58;10.20;99.90
35258;DHT22;21385;50.878;8.050;2023-04-24T03:34:24;10.10;99.90
35258;DHT22;21385;50.878;8.050;2023-04-24T03:36:50;10.10;99.90
35258;DHT22;21385;50.878;8.050;2023-04-24T03:39:15;10.00;99.90
35258;DHT22;21385;50.878;8.050;2023-04-24T03:41:41;9.90;99.90
35258;DHT22;21385;50.878;8.050;2023-04-24T03:44:06;9.90;99.90
35258;DHT22;21385;50.878;8.050;2023-04-24T03:46:32;9.70;99.90
35258;DHT22;21385;50.878;8.050;2023-04-24T03:48:58;9.70;99.90
35258;DHT22;21385;50.878;8.050;2023-04-24T03:51:23;9.70;99.90
35258;DHT22;21385;50.878;8.050;2023-04-24T03:53:49;9.60;99.90
35258;DHT22;21385;50.878;8.050;2023-04-24T03:56:15;9.60;99.90
35258;DHT22;21385;50.878;8.050;2023-04-24T03:58:41;9.60;99.90
35258;DHT22;21385;50.878;8.050;2023-04-24T04:01:06;9.50;99.90
35258;DHT22;21385;50.878;8.050;2023-04-24T04:03:33;9.50;99.90
35258;DHT22;21385;50.878;8.050;2023-04-24T04:05:58;9.50;99.90
35258;DHT22;21385;50.878;8.050;2023-04-24T04:08:24;9.40;99.90
35258;DHT22;21385;50.878;8.050;2023-04-24T04:10:50;9.40;99.90
35258;DHT22;21385;50.878;8.050;2023-04-24T04:13:15;9.40;99.90
35258;DHT22;21385;50.878;8.050;2023-04-24T04:15:41;9.40;99.90
35258;DHT22;21385;50.878;8.050;2023-04-24T04:18:06;9.40;99.90
35258;DHT22;21385;50.878;8.050;2023-04-24T04:20:32;9.40;99.90
35258;DHT22;21385;50.878;8.050;2023-04-24T04:22:58;9.40;99.90
35258;DHT22;21385;50.878;8.050;2023-04-24T04:25:23;9.30;99.90
35258;DHT22;21385;50.878;8.050;2023-04-24T04:27:49;9.30;99.90
35258;DHT22;21385;50.878;8.050;2023-04-24T04:30:16;9.30;99.90
35258;DHT22;21385;50.878;8.050;2023-04-24T04:32:43;9.20;99.90
35258;DHT22;21385;50.878;8.050;2023-04-24T04:35:09;9.20;99.90
35258;DHT22;21385;50.878;8.050;2023-04-24T04:37:35;9.10;99.90
35258;DHT22;21385;50.878;8.050;2023-04-24T04:40:01;9.10;99.90
35258;DHT22;21385;50.878;8.050;2023-04-24T04:42:32;9.20;99.90
35258;DHT22;21385;50.878;8.050;2023-04-24T04:44:58;9.10;99.90
35258;DHT22;21385;50.878;8.050;2023-04-24T04:47:23;9.10;99.90
35258;DHT22;21385;50.878;8.050;2023-04-24T04:49:50;9.10;99.90
35258;DHT22;21385;50.878;8.050;2023-04-24T04:52:17;9.10;99.90
35258;DHT22;21385;50.878;8.050;2023-04-24T04:54:43;9.20;99.90
35258;DHT22;21385;50.878;8.050;2023-04-24T04:57:09;9.10;99.90
35258;DHT22;21385;50.878;8.050;2023-04-24T04:59:35;9.20;99.90
35258;DHT22;21385;50.878;8.050;2023-04-24T05:02:01;9.20;99.90
35258;DHT22;21385;50.878;8.050;2023-04-24T05:04:26;9.30;99.90
35258;DHT22;21385;50.878;8.050;2023-04-24T05:06:52;9.30;99.90
35258;DHT22;21385;50.878;8.050;2023-04-24T05:09:18;9.30;99.90
35258;DHT22;21385;50.878;8.050;2023-04-24T05:11:44;9.30;99.90
35258;DHT22;21385;50.878;8.050;2023-04-24T05:14:09;9.20;99.90
35258;DHT22;21385;50.878;8.050;2023-04-24T05:16:35;9.20;99.90
35258;DHT22;21385;50.878;8.050;2023-04-24T05:19:02;9.10;99.90
35258;DHT22;21385;50.878;8.050;2023-04-24T05:21:28;8.90;99.90
35258;DHT22;21385;50.878;8.050;2023-04-24T05:23:53;9.00;99.90
35258;DHT22;21385;50.878;8.050;2023-04-24T05:26:19;9.00;99.90
35258;DHT22;21385;50.878;8.050;2023-04-24T05:28:44;9.00;99.90
35258;DHT22;21385;50.878;8.050;2023-04-24T05:31:10;8.90;99.90
35258;DHT22;21385;50.878;8.050;2023-04-24T05:33:37;8.90;99.90
35258;DHT22;21385;50.878;8.050;2023-04-24T05:36:03;9.00;99.90
35258;DHT22;21385;50.878;8.050;2023-04-24T05:38:30;9.00;99.90
35258;DHT22;21385;50.878;8.050;2023-04-24T05:40:56;9.00;99.90
35258;DHT22;21385;50.878;8.050;2023-04-24T05:43:21;8.90;99.90
35258;DHT22;21385;50.878;8.050;2023-04-24T05:45:47;9.00;99.90
35258;DHT22;21385;50.878;8.050;2023-04-24T05:48:13;9.00;99.90
35258;DHT22;21385;50.878;8.050;2023-04-24T05:50:38;9.00;99.90
35258;DHT22;21385;50.878;8.050;2023-04-24T05:53:04;9.00;99.90
35258;DHT22;21385;50.878;8.050;2023-04-24T05:55:32;9.10;99.90
35258;DHT22;21385;50.878;8.050;2023-04-24T05:57:58;9.10;99.90
35258;DHT22;21385;50.878;8.050;2023-04-24T06:00:24;9.00;99.90
35258;DHT22;21385;50.878;8.050;2023-04-24T06:02:50;9.10;99.90
35258;DHT22;21385;50.878;8.050;2023-04-24T06:05:16;9.20;99.90
35258;DHT22;21385;50.878;8.050;2023-04-24T06:07:42;9.20;99.90
35258;DHT22;21385;50.878;8.050;2023-04-24T06:10:09;9.20;99.90
35258;DHT22;21385;50.878;8.050;2023-04-24T06:12:34;9.20;99.90
35258;DHT22;21385;50.878;8.050;2023-04-24T06:15:00;9.10;99.90
35258;DHT22;21385;50.878;8.050;2023-04-24T06:17:26;9.20;99.90
35258;DHT22;21385;50.878;8.050;2023-04-24T06:19:51;9.20;99.90
35258;DHT22;21385;50.878;8.050;2023-04-24T06:22:17;9.20;99.90
35258;DHT22;21385;50.878;8.050;2023-04-24T06:24:43;9.20;99.90
35258;DHT22;21385;50.878;8.050;2023-04-24T06:27:08;9.20;99.90
35258;DHT22;21385;50.878;8.050;2023-04-24T06:29:35;9.30;99.90
35258;DHT22;21385;50.878;8.050;2023-04-24T06:32:00;9.20;99.90
35258;DHT22;21385;50.878;8.050;2023-04-24T06:34:26;9.20;99.90
35258;DHT22;21385;50.878;8.050;2023-04-24T06:36:51;9.30;99.90
35258;DHT22;21385;50.878;8.050;2023-04-24T06:39:17;9.20;99.90
35258;DHT22;21385;50.878;8.050;2023-04-24T06:41:43;9.20;99.90
35258;DHT22;21385;50.878;8.050;2023-04-24T06:44:08;9.30;99.90
35258;DHT22;21385;50.878;8.050;2023-04-24T06:46:34;9.20;99.90
35258;DHT22;21385;50.878;8.050;2023-04-24T06:49:00;9.30;99.90
35258;DHT22;21385;50.878;8.050;2023-04-24T06:51:26;9.30;99.90
35258;DHT22;21385;50.878;8.050;2023-04-24T06:53:53;9.20;99.90
35258;DHT22;21385;50.878;8.050;2023-04-24T06:56:19;9.20;99.90
35258;DHT22;21385;50.878;8.050;2023-04-24T06:58:45;9.20;99.90
35258;DHT22;21385;50.878;8.050;2023-04-24T07:01:11;9.10;99.90
35258;DHT22;21385;50.878;8.050;2023-04-24T07:03:37;9.20;99.90
35258;DHT22;21385;50.878;8.050;2023-04-24T07:06:03;9.20;99.90
35258;DHT22;21385;50.878;8.050;2023-04-24T07:08:29;9.20;99.90
35258;DHT22;21385;50.878;8.050;2023-04-24T07:10:59;9.30;99.90
35258;DHT22;21385;50.878;8.050;2023-04-24T07:13:24;9.30;99.90
35258;DHT22;21385;50.878;8.050;2023-04-24T07:15:50;9.30;99.90
35258;DHT22;21385;50.878;8.050;2023-04-24T07:18:17;9.30;99.90
35258;DHT22;21385;50.878;8.050;2023-04-24T07:20:43;9.30;99.90
35258;DHT22;21385;50.878;8.050;2023-04-24T07:23:10;9.50;99.90
35258;DHT22;21385;50.878;8.050;2023-04-24T07:25:35;9.50;99.90
35258;DHT22;21385;50.878;8.050;2023-04-24T07:28:01;9.50;99.90
35258;DHT22;21385;50.878;8.050;2023-04-24T07:30:27;9.60;99.90
35258;DHT22;21385;50.878;8.050;2023-04-24T07:32:54;9.60;99.90
35258;DHT22;21385;50.878;8.050;2023-04-24T07:35:21;9.50;99.90
35258;DHT22;21385;50.878;8.050;2023-04-24T07:37:46;9.50;99.90
35258;DHT22;21385;50.878;8.050;2023-04-24T07:40:13;9.50;99.90
35258;DHT22;21385;50.878;8.050;2023-04-24T07:42:39;9.50;99.90
35258;DHT22;21385;50.878;8.050;2023-04-24T07:45:05;9.70;99.90
35258;DHT22;21385;50.878;8.050;2023-04-24T07:47:31;9.70;99.90
35258;DHT22;21385;50.878;8.050;2023-04-24T07:49:57;9.60;99.90
35258;DHT22;21385;50.878;8.050;2023-04-24T07:52:24;9.70;99.90
35258;DHT22;21385;50.878;8.050;2023-04-24T07:54:49;9.70;99.90
35258;DHT22;21385;50.878;8.050;2023-04-24T07:57:16;9.70;99.90
35258;DHT22;21385;50.878;8.050;2023-04-24T07:59:42;9.70;99.90
35258;DHT22;21385;50.878;8.050;2023-04-24T08:02:07;9.60;99.90
35258;DHT22;21385;50.878;8.050;2023-04-24T08:04:33;9.60;99.90
35258;DHT22;21385;50.878;8.050;2023-04-24T08:06:59;9.70;99.90
35258;DHT22;21385;50.878;8.050;2023-04-24T08:09:24;9.60;99.90
35258;DHT22;21385;50.878;8.050;2023-04-24T08:11:50;9.50;99.90
35258;DHT22;21385;50.878;8.050;2023-04-24T08:14:15;9.50;99.90
35258;DHT22;21385;50.878;8.050;2023-04-24T08:16:41;9.50;99.90
35258;DHT22;21385;50.878;8.050;2023-04-24T08:19:07;9.50;99.90
35258;DHT22;21385;50.878;8.050;2023-04-24T08:21:33;9.50;99.90
35258;DHT22;21385;50.878;8.050;2023-04-24T08:23:59;9.40;99.90
35258;DHT22;21385;50.878;8.050;2023-04-24T08:26:24;9.30;99.90
35258;DHT22;21385;50.878;8.050;2023-04-24T08:28:50;9.30;99.90
35258;DHT22;21385;50.878;8.050;2023-04-24T08:31:16;9.30;99.90
35258;DHT22;21385;50.878;8.050;2023-04-24T08:33:41;9.40;99.90
35258;DHT22;21385;50.878;8.050;2023-04-24T08:36:10;9.30;99.90
35258;DHT22;21385;50.878;8.050;2023-04-24T08:38:35;9.10;99.90
35258;DHT22;21385;50.878;8.050;2023-04-24T08:41:01;9.00;99.90
35258;DHT22;21385;50.878;8.050;2023-04-24T08:43:27;9.00;99.90
35258;DHT22;21385;50.878;8.050;2023-04-24T08:45:55;9.00;99.90
35258;DHT22;21385;50.878;8.050;2023-04-24T08:48:22;9.10;99.90
35258;DHT22;21385;50.878;8.050;2023-04-24T08:50:50;9.20;99.90
35258;DHT22;21385;50.878;8.050;2023-04-24T08:53:16;9.20;99.90
35258;DHT22;21385;50.878;8.050;2023-04-24T08:55:43;9.20;99.90
35258;DHT22;21385;50.878;8.050;2023-04-24T08:58:11;9.10;99.90
35258;DHT22;21385;50.878;8.050;2023-04-24T09:00:39;9.20;99.90
35258;DHT22;21385;50.878;8.050;2023-04-24T09:03:05;9.10;99.90
35258;DHT22;21385;50.878;8.050;2023-04-24T09:05:32;9.20;99.90
35258;DHT22;21385;50.878;8.050;2023-04-24T09:07:59;9.00;99.90
35258;DHT22;21385;50.878;8.050;2023-04-24T09:10:27;8.90;99.90
35258;DHT22;21385;50.878;8.050;2023-04-24T09:12:56;8.80;99.90
35258;DHT22;21385;50.878;8.050;2023-04-24T09:15:24;8.50;99.90
35258;DHT22;21385;50.878;8.050;2023-04-24T09:17:50;8.50;99.90
35258;DHT22;21385;50.878;8.050;2023-04-24T09:20:16;8.40;99.90
35258;DHT22;21385;50.878;8.050;2023-04-24T09:22:42;8.10;99.90
35258;DHT22;21385;50.878;8.050;2023-04-24T09:25:09;8.10;99.90
35258;DHT22;21385;50.878;8.050;2023-04-24T09:27:42;8.10;99.90
35258;DHT22;21385;50.878;8.050;2023-04-24T09:32:35;7.90;99.90
35258;DHT22;21385;50.878;8.050;2023-04-24T09:35:11;7.90;99.90
35258;DHT22;21385;50.878;8.050;2023-04-24T09:37:45;8.00;99.90
35258;DHT22;21385;50.878;8.050;2023-04-24T09:40:18;7.90;99.90
35258;DHT22;21385;50.878;8.050;2023-04-24T09:42:54;7.90;99.90
35258;DHT22;21385;50.878;8.050;2023-04-24T09:45:21;7.90;99.90
35258;DHT22;21385;50.878;8.050;2023-04-24T09:47:51;7.80;99.90
35258;DHT22;21385;50.878;8.050;2023-04-24T09:50:18;7.60;99.90
35258;DHT22;21385;50.878;8.050;2023-04-24T09:52:46;7.50;99.90
35258;DHT22;21385;50.878;8.050;2023-04-24T09:55:21;7.40;99.90
35258;DHT22;21385;50.878;8.050;2023-04-24T09:57:51;7.10;99.90
35258;DHT22;21385;50.878;8.050;2023-04-24T10:23:33;6.80;99.90
35258;DHT22;21385;50.878;8.050;2023-04-24T10:26:00;6.80;99.90
35258;DHT22;21385;50.878;8.050;2023-04-24T10:28:26;6.40;99.90
35258;DHT22;21385;50.878;8.050;2023-04-24T10:30:54;6.80;99.90
35258;DHT22;21385;50.878;8.050;2023-04-24T10:33:21;6.90;99.90
35258;DHT22;21385;50.878;8.050;2023-04-24T10:35:48;6.90;99.90
35258;DHT22;21385;50.878;8.050;2023-04-24T10:38:23;7.00;99.90
35258;DHT22;21385;50.878;8.050;2023-04-24T10:40:50;7.00;99.90
35258;DHT22;21385;50.878;8.050;2023-04-24T10:43:17;7.00;99.90
35258;DHT22;21385;50.878;8.050;2023-04-24T10:46:03;7.20;99.90
35258;DHT22;21385;50.878;8.050;2023-04-24T10:48:30;7.10;99.90
35258;DHT22;21385;50.878;8.050;2023-04-24T10:50:55;7.20;99.90
35258;DHT22;21385;50.878;8.050;2023-04-24T10:53:27;7.30;99.90
35258;DHT22;21385;50.878;8.050;2023-04-24T10:55:57;7.40;99.90
35258;DHT22;21385;50.878;8.050;2023-04-24T10:58:24;7.40;99.90
35258;DHT22;21385;50.878;8.050;2023-04-24T11:00:58;7.40;99.90
35258;DHT22;21385;50.878;8.050;2023-04-24T11:03:29;7.30;99.90
35258;DHT22;21385;50.878;8.050;2023-04-24T11:08:28;7.40;99.90
35258;DHT22;21385;50.878;8.050;2023-04-24T11:11:09;7.30;99.90
35258;DHT22;21385;50.878;8.050;2023-04-24T11:21:48;7.70;99.90
35258;DHT22;21385;50.878;8.050;2023-04-24T11:24:27;7.60;99.90
35258;DHT22;21385;50.878;8.050;2023-04-24T11:32:39;8.00;99.90
35258;DHT22;21385;50.878;8.050;2023-04-24T11:35:19;8.00;99.90
35258;DHT22;21385;50.878;8.050;2023-04-24T11:37:50;8.00;99.90
35258;DHT22;21385;50.878;8.050;2023-04-24T11:40:19;8.10;99.90
35258;DHT22;21385;50.878;8.050;2023-04-24T11:42:50;8.20;99.90
35258;DHT22;21385;50.878;8.050;2023-04-24T11:47:47;8.40;99.90
35258;DHT22;21385;50.878;8.050;2023-04-24T11:50:14;8.50;99.90
35258;DHT22;21385;50.878;8.050;2023-04-24T11:52:42;8.60;99.90
35258;DHT22;21385;50.878;8.050;2023-04-24T11:55:23;8.70;99.90
35258;DHT22;21385;50.878;8.050;2023-04-24T11:57:53;8.70;99.90
35258;DHT22;21385;50.878;8.050;2023-04-24T12:00:23;8.70;99.90
35258;DHT22;21385;50.878;8.050;2023-04-24T12:02:49;8.60;99.90
35258;DHT22;21385;50.878;8.050;2023-04-24T12:05:26;8.50;99.90
35258;DHT22;21385;50.878;8.050;2023-04-24T12:07:52;8.50;99.90
35258;DHT22;21385;50.878;8.050;2023-04-24T12:10:22;8.50;99.90
35258;DHT22;21385;50.878;8.050;2023-04-24T12:12:48;8.60;99.90
35258;DHT22;21385;50.878;8.050;2023-04-24T12:15:16;8.50;99.90
35258;DHT22;21385;50.878;8.050;2023-04-24T12:17:42;8.60;99.90
35258;DHT22;21385;50.878;8.050;2023-04-24T12:20:08;8.60;99.90
35258;DHT22;21385;50.878;8.050;2023-04-24T12:22:47;8.60;99.90
35258;DHT22;21385;50.878;8.050;2023-04-24T12:25:19;8.50;99.90
35258;DHT22;21385;50.878;8.050;2023-04-24T12:27:46;8.50;99.90
35258;DHT22;21385;50.878;8.050;2023-04-24T12:30:16;8.60;99.90
35258;DHT22;21385;50.878;8.050;2023-04-24T12:32:49;8.60;99.90
35258;DHT22;21385;50.878;8.050;2023-04-24T12:35:23;8.60;99.90
35258;DHT22;21385;50.878;8.050;2023-04-24T12:37:49;8.60;99.90
35258;DHT22;21385;50.878;8.050;2023-04-24T12:40:16;8.70;99.90
35258;DHT22;21385;50.878;8.050;2023-04-24T12:42:46;8.70;99.90
35258;DHT22;21385;50.878;8.050;2023-04-24T12:45:12;8.70;99.90
35258;DHT22;21385;50.878;8.050;2023-04-24T12:47:39;8.80;99.90
35258;DHT22;21385;50.878;8.050;2023-04-24T12:50:09;8.80;99.90
35258;DHT22;21385;50.878;8.050;2023-04-24T12:52:36;8.80;99.90
35258;DHT22;21385;50.878;8.050;2023-04-24T12:55:02;8.90;99.90
35258;DHT22;21385;50.878;8.050;2023-04-24T12:57:29;8.80;99.90
35258;DHT22;21385;50.878;8.050;2023-04-24T12:59:56;8.60;99.90
35258;DHT22;21385;50.878;8.050;2023-04-24T13:02:26;8.60;99.90
35258;DHT22;21385;50.878;8.050;2023-04-24T13:04:52;8.50;99.90
35258;DHT22;21385;50.878;8.050;2023-04-24T13:07:18;8.60;99.90
35258;DHT22;21385;50.878;8.050;2023-04-24T13:09:44;8.60;99.90
35258;DHT22;21385;50.878;8.050;2023-04-24T13:12:11;8.70;99.90
35258;DHT22;21385;50.878;8.050;2023-04-24T13:14:36;8.60;99.90
35258;DHT22;21385;50.878;8.050;2023-04-24T13:17:02;8.50;99.90
35258;DHT22;21385;50.878;8.050;2023-04-24T13:19:28;8.60;99.90
35258;DHT22;21385;50.878;8.050;2023-04-24T13:21:55;8.50;99.90
35258;DHT22;21385;50.878;8.050;2023-04-24T13:24:22;8.60;99.90
35258;DHT22;21385;50.878;8.050;2023-04-24T13:26:52;8.70;99.90
35258;DHT22;21385;50.878;8.050;2023-04-24T13:29:18;8.70;99.90
35258;DHT22;21385;50.878;8.050;2023-04-24T13:31:44;8.80;99.90
35258;DHT22;21385;50.878;8.050;2023-04-24T13:34:09;8.90;99.90
35258;DHT22;21385;50.878;8.050;2023-04-24T13:36:35;9.00;99.90
35258;DHT22;21385;50.878;8.050;2023-04-24T13:39:02;9.30;99.90
35258;DHT22;21385;50.878;8.050;2023-04-24T13:41:29;9.70;99.90
35258;DHT22;21385;50.878;8.050;2023-04-24T13:43:55;9.80;99.90
35258;DHT22;21385;50.878;8.050;2023-04-24T13:46:21;9.80;99.90
35258;DHT22;21385;50.878;8.050;2023-04-24T13:48:46;9.60;99.90
35258;DHT22;21385;50.878;8.050;2023-04-24T13:51:12;9.60;99.90
35258;DHT22;21385;50.878;8.050;2023-04-24T13:53:37;9.60;99.90
35258;DHT22;21385;50.878;8.050;2023-04-24T13:56:04;9.50;99.90
35258;DHT22;21385;50.878;8.050;2023-04-24T13:58:31;9.40;99.90
35258;DHT22;21385;50.878;8.050;2023-04-24T14:00:57;9.40;99.90
35258;DHT22;21385;50.878;8.050;2023-04-24T14:03:23;9.30;99.90
35258;DHT22;21385;50.878;8.050;2023-04-24T14:05:48;9.10;99.90
35258;DHT22;21385;50.878;8.050;2023-04-24T14:08:14;9.00;99.90
35258;DHT22;21385;50.878;8.050;2023-04-24T14:10:40;8.90;99.90
35258;DHT22;21385;50.878;8.050;2023-04-24T14:13:05;8.80;99.90
35258;DHT22;21385;50.878;8.050;2023-04-24T14:15:31;8.80;99.90
35258;DHT22;21385;50.878;8.050;2023-04-24T14:17:57;9.00;99.90
35258;DHT22;21385;50.878;8.050;2023-04-24T14:20:23;9.10;99.90
35258;DHT22;21385;50.878;8.050;2023-04-24T14:22:48;9.20;99.90
35258;DHT22;21385;50.878;8.050;2023-04-24T14:25:14;9.50;99.90
35258;DHT22;21385;50.878;8.050;2023-04-24T14:27:40;9.80;99.90
35258;DHT22;21385;50.878;8.050;2023-04-24T14:30:07;9.90;99.90
35258;DHT22;21385;50.878;8.050;2023-04-24T14:32:32;9.90;99.90
35258;DHT22;21385;50.878;8.050;2023-04-24T14:34:58;10.00;99.90
35258;DHT22;21385;50.878;8.050;2023-04-24T14:37:24;10.10;99.90
35258;DHT22;21385;50.878;8.050;2023-04-24T14:39:49;10.10;99.90
35258;DHT22;21385;50.878;8.050;2023-04-24T14:42:15;10.20;99.90
35258;DHT22;21385;50.878;8.050;2023-04-24T14:44:42;10.40;99.90
35258;DHT22;21385;50.878;8.050;2023-04-24T14:47:07;10.40;99.90
35258;DHT22;21385;50.878;8.050;2023-04-24T14:49:33;10.50;99.90
35258;DHT22;21385;50.878;8.050;2023-04-24T14:51:59;10.40;99.90
35258;DHT22;21385;50.878;8.050;2023-04-24T14:54:24;10.40;99.90
35258;DHT22;21385;50.878;8.050;2023-04-24T14:56:50;10.30;99.90
35258;DHT22;21385;50.878;8.050;2023-04-24T14:59:16;10.30;99.90
35258;DHT22;21385;50.878;8.050;2023-04-24T15:01:41;10.20;99.90
35258;DHT22;21385;50.878;8.050;2023-04-24T15:04:07;10.40;99.90
35258;DHT22;21385;50.878;8.050;2023-04-24T15:06:33;10.60;99.90
35258;DHT22;21385;50.878;8.050;2023-04-24T15:08:58;10.70;99.90
35258;DHT22;21385;50.878;8.050;2023-04-24T15:11:24;10.80;99.90
35258;DHT22;21385;50.878;8.050;2023-04-24T15:13:50;10.80;99.90
35258;DHT22;21385;50.878;8.050;2023-04-24T15:16:15;10.70;99.90
35258;DHT22;21385;50.878;8.050;2023-04-24T15:18:41;10.80;99.90
35258;DHT22;21385;50.878;8.050;2023-04-24T15:21:07;10.80;99.90
35258;DHT22;21385;50.878;8.050;2023-04-24T15:23:32;10.80;99.90
35258;DHT22;21385;50.878;8.050;2023-04-24T15:25:58;10.60;99.90
35258;DHT22;21385;50.878;8.050;2023-04-24T15:28:24;10.50;99.90
35258;DHT22;21385;50.878;8.050;2023-04-24T15:30:50;10.40;99.90
35258;DHT22;21385;50.878;8.050;2023-04-24T15:33:16;10.30;99.90
35258;DHT22;21385;50.878;8.050;2023-04-24T15:35:41;10.20;99.90
35258;DHT22;21385;50.878;8.050;2023-04-24T15:38:07;10.40;99.90
35258;DHT22;21385;50.878;8.050;2023-04-24T15:40:33;10.90;99.90
35258;DHT22;21385;50.878;8.050;2023-04-24T15:42:58;11.40;99.90
35258;DHT22;21385;50.878;8.050;2023-04-24T15:45:24;11.60;99.90
35258;DHT22;21385;50.878;8.050;2023-04-24T15:47:50;11.90;99.90
35258;DHT22;21385;50.878;8.050;2023-04-24T15:50:16;12.20;99.90
35258;DHT22;21385;50.878;8.050;2023-04-24T15:52:45;12.60;99.90
35258;DHT22;21385;50.878;8.050;2023-04-24T15:55:11;12.50;99.90
35258;DHT22;21385;50.878;8.050;2023-04-24T15:57:37;12.40;99.90
35258;DHT22;21385;50.878;8.050;2023-04-24T16:00:04;12.30;99.90
35258;DHT22;21385;50.878;8.050;2023-04-24T16:02:34;12.30;99.90
35258;DHT22;21385;50.878;8.050;2023-04-24T16:07:25;12.40;99.90
35258;DHT22;21385;50.878;8.050;2023-04-24T16:09:51;12.40;99.90
35258;DHT22;21385;50.878;8.050;2023-04-24T16:12:16;12.40;99.90
35258;DHT22;21385;50.878;8.050;2023-04-24T16:14:42;12.60;99.90
35258;DHT22;21385;50.878;8.050;2023-04-24T16:17:08;12.60;99.90
35258;DHT22;21385;50.878;8.050;2023-04-24T16:19:33;12.70;99.90
35258;DHT22;21385;50.878;8.050;2023-04-24T16:21:59;12.80;99.90